Beverly Hills, CA

1:28 AM PDT on October 01, 2014 (GMT -0700)
View Park-Windsor Hills | Change Station
CLOSE
Current Station
Personal Weather Station
Location: Los Angeles, CA
Elevation: 328 ft
Nearby Weather Stations
Active Advisory: Special Statement

Elev 328 ft 34.00 °N, 118.35 °W | Updated 42 seconds ago

Clear
Clear
62.7 °F
Feels Like 62.7 °F
N
0.0
Wind Variable Wind from West
Gusts 0.0 mph

Today
High -- | Low -- °F
--% Chance of Precip.
Yesterday
High -- | Low -- °F
Precip. -- in
6:48 AM 6:37 PM
Waxing Crescent, 45% visible
Pressure 29.77 in
Visibility 10.0 miles
Clouds Few 900 ft
Dew Point 60 °F
Humidity 92%
Rainfall 0.00 in
Snow Depth Not available.
UV 0 out of 12
Pollen 5.30 out of 12
Ozone Good
Flu Activity Not available.
METAR KSMO 010751Z AUTO 00000KT 10SM FEW009 18/16 A2977 RMK AO2 SLP079 T01830161 402610167 $

More Conditions Fewer Conditions

Pressure 29.77 in
Visibility 10.0 miles
Clouds Few 900 ft
Dew Point 60 °F
Humidity 92%
Rainfall 0.00 in
Snow Depth Not available.
UV 0 out of 12
Pollen 5.30 out of 12
Ozone Good
Flu Activity Not available.
METAR KSMO 010751Z AUTO 00000KT 10SM FEW009 18/16 A2977 RMK AO2 SLP079 T01830161 402610167 $

More Conditions Fewer Conditions

10-Day Weather Forecast

Almanac

Astronomy

Oct. 01, 2014 Rise Set
Actual Time 6:48 AM PDT 6:37 PM PDT
Civil Twilight 6:23 AM PDT 7:02 PM PDT
Nautical Twilight 5:54 AM PDT 7:31 PM PDT
Astronomical Twilight 5:24 AM PDT 8:00 PM PDT
Moon 1:41 PM PDT No Moon Set
Length of Visible Light 12h 39m
Length of Day
11h 49m
Tomorrow will be 2m 6s shorter.
Waxing Crescent, 45% of the Moon is Illuminated
Today
Waxing Crescent
Oct 1
First Quarter
Oct 8
Full
Oct 15
Last Quarter
Oct 23
New

Today's Extremes

State Highs State Lows

Community

WunderPhotos

Upload Photos

1,757,902 photos uploaded!

Nearby

Air Quality

  Air Quality AQ Index Pollutant
Yesterday Good
OZONE
Current Good
OZONE
Wednesday Good
PM10
Wednesday Good
OZONE
Wednesday Good
CO
Wednesday Good
NO2

Snow Depth

Station Depth Elevation
Summit Meadow 1 in 9122 ft
Poison Flat 0 in 7900 ft
Independence Creek 0 in 6500 ft
Independence Lake 0 in 8450 ft
Forestdale Creek 0 in 8029 ft

Earthquake Activity

City Distance Mag. Time & Date
Shandon, California 161 miles 2.9 5:34 PM PDT
2014-09-30
Avalon, California 68 miles 2.6 1:28 PM PDT
2014-09-30
Minimum magnitude displayed is 2.5.

Coastal Water Temperatures

Place Temperature
Santa Monica Pier 69.1 °F
Los Angeles, CA 66.9 °F
La Jolla, CA 72.0 °F

Nearby Weather Stations